Time;durP1;ratioP1;P1;durP2;ratioP2;P2;SDS_P1;SDS_P2;PMS_P1;PMS_P2;Temp;Humidity;BMP_temperature;BMP_pressure;BME280_temperature;BME280_humidity;BME280_pressure;Samples;Min_cycle;Max_cycle;Signal;HPM_P1;HPM_P2
2022/11/09 00:01:29;;;;;;;9.07;2.58;;;;;;;11.11;100.00;100501.44;4953869;28;20038;-77
2022/11/09 00:03:56;;;;;;;5.35;2.72;;;;;;;11.04;100.00;100498.16;4953436;28;20050;-76
2022/11/09 00:06:22;;;;;;;6.70;2.50;;;;;;;11.02;100.00;100495.63;4954820;28;20057;-77
2022/11/09 00:08:48;;;;;;;6.45;2.60;;;;;;;11.06;100.00;100498.97;4953685;28;20471;-76
2022/11/09 00:11:13;;;;;;;8.63;3.25;;;;;;;11.05;100.00;100499.84;4954749;28;20039;-77
2022/11/09 00:13:42;;;;;;;5.43;2.45;;;;;;;11.04;100.00;100492.94;4954525;28;20051;-76
2022/11/09 00:16:09;;;;;;;13.98;2.67;;;;;;;11.07;100.00;100498.06;4954977;28;20065;-76
2022/11/09 00:18:35;;;;;;;6.00;2.60;;;;;;;11.06;100.00;100501.59;4954304;28;20027;-76
2022/11/09 00:21:05;;;;;;;7.57;2.53;;;;;;;11.11;100.00;100498.81;4953430;28;20015;-76
2022/11/09 00:23:31;;;;;;;10.18;2.92;;;;;;;11.14;100.00;100493.50;4954972;28;20111;-76
2022/11/09 00:26:04;;;;;;;5.18;2.63;;;;;;;11.24;100.00;100495.78;4953623;28;20110;-76
2022/11/09 00:28:30;;;;;;;10.00;3.00;;;;;;;11.25;100.00;100481.84;4954100;29;20032;-76
2022/11/09 00:30:59;;;;;;;7.80;2.50;;;;;;;11.27;100.00;100488.75;4953570;28;20475;-76
2022/11/09 00:33:24;;;;;;;5.05;2.40;;;;;;;11.30;100.00;100492.13;4954547;28;20027;-76
2022/11/09 00:35:50;;;;;;;5.78;2.90;;;;;;;11.29;100.00;100492.19;4954903;28;20034;-77
2022/11/09 00:38:15;;;;;;;7.13;3.25;;;;;;;11.28;100.00;100493.06;4954195;28;20023;-76
2022/11/09 00:40:40;;;;;;;6.90;2.50;;;;;;;11.23;100.00;100478.41;4969009;23;20066;-77
2022/11/09 00:43:05;;;;;;;9.52;2.55;;;;;;;11.28;100.00;100478.28;4953982;28;20479;-76
2022/11/09 00:45:31;;;;;;;5.93;2.80;;;;;;;11.30;100.00;100484.28;4953853;28;20035;-76
2022/11/09 00:47:56;;;;;;;5.32;2.35;;;;;;;11.32;100.00;100487.72;4953549;28;20035;-76
2022/11/09 00:50:21;;;;;;;4.90;2.60;;;;;;;11.34;100.00;100479.81;4954384;28;20031;-76
2022/11/09 00:52:47;;;;;;;4.30;2.30;;;;;;;11.36;100.00;100478.03;4953715;28;20027;-76
2022/11/09 00:55:12;;;;;;;6.82;2.58;;;;;;;11.29;100.00;100466.94;4954307;28;20027;-77
2022/11/09 00:57:38;;;;;;;4.82;2.42;;;;;;;11.40;100.00;100477.03;4954436;28;20439;-77
2022/11/09 01:00:03;;;;;;;5.65;2.30;;;;;;;11.36;100.00;100467.59;4953251;29;20027;-76
2022/11/09 01:02:29;;;;;;;10.43;3.63;;;;;;;11.43;100.00;100482.16;4954086;28;20016;-77
2022/11/09 01:04:54;;;;;;;7.53;2.45;;;;;;;11.41;100.00;100477.00;4953629;28;20414;-76
2022/11/09 01:07:19;;;;;;;5.93;2.10;;;;;;;11.39;100.00;100470.94;4953235;28;20023;-76
2022/11/09 01:09:45;;;;;;;7.28;2.50;;;;;;;11.40;100.00;100475.25;4953679;28;20031;-76
2022/11/09 01:12:10;;;;;;;8.30;2.58;;;;;;;11.42;100.00;100490.88;4953196;28;20031;-76
2022/11/09 01:14:35;;;;;;;5.90;2.53;;;;;;;11.36;100.00;100486.72;4959020;23;20053;-76
2022/11/09 01:17:01;;;;;;;8.85;2.75;;;;;;;11.34;100.00;100483.28;4953274;28;20110;-76
2022/11/09 01:19:26;;;;;;;5.38;2.30;;;;;;;11.41;100.00;100497.88;4953657;28;20479;-76
2022/11/09 01:21:51;;;;;;;13.63;2.60;;;;;;;11.38;100.00;100502.31;4952921;28;20042;-76
2022/11/09 01:24:16;;;;;;;5.00;2.40;;;;;;;11.33;100.00;100510.28;4952416;28;20526;-76
2022/11/09 01:26:42;;;;;;;7.97;2.95;;;;;;;11.32;100.00;100510.34;4951972;28;20481;-76
2022/11/09 01:29:07;;;;;;;7.80;2.10;;;;;;;11.21;100.00;100506.31;4951056;28;20027;-76
2022/11/09 01:31:32;;;;;;;4.80;2.03;;;;;;;11.21;100.00;100502.84;4953271;28;20035;-76
2022/11/09 01:33:57;;;;;;;4.60;1.88;;;;;;;11.18;100.00;100508.16;4953086;28;20470;-76
2022/11/09 01:36:23;;;;;;;5.38;2.20;;;;;;;11.18;100.00;100516.88;4952987;28;20031;-76
2022/11/09 01:38:49;;;;;;;5.75;2.45;;;;;;;11.19;100.00;100517.72;4953465;28;20019;-76
2022/11/09 01:41:18;;;;;;;5.88;2.42;;;;;;;11.20;100.00;100520.25;4953021;28;20074;-76
2022/11/09 01:43:45;;;;;;;5.53;2.17;;;;;;;11.23;100.00;100520.16;4939730;29;20098;-76
2022/11/09 01:46:27;;;;;;;10.45;2.38;;;;;;;11.20;100.00;100524.63;4953296;28;20042;-76
2022/11/09 01:48:58;;;;;;;4.95;2.47;;;;;;;11.23;100.00;100527.16;4939706;29;20033;-74
2022/11/09 01:51:32;;;;;;;12.43;2.55;;;;;;;11.27;100.00;100520.06;4951111;28;20027;-76
2022/11/09 01:54:06;;;;;;;;;;;;;;;11.21;100.00;100510.69;4953192;28;20023;-76
2022/11/09 01:56:32;;;;;;;6.28;2.40;;;;;;;11.09;100.00;100490.22;4952317;28;19942;-76
2022/11/09 01:59:03;;;;;;;7.47;1.95;;;;;;;11.13;100.00;100497.88;4952603;28;20070;-76
2022/11/09 02:01:29;;;;;;;6.70;2.03;;;;;;;11.05;100.00;100497.25;4952914;29;20035;-76
2022/11/09 02:04:20;;;;;;;6.13;2.05;;;;;;;11.07;100.00;100515.47;4952150;28;20023;-76
2022/11/09 02:06:46;;;;;;;5.57;2.13;;;;;;;11.08;100.00;100512.81;4952354;28;20027;-76
2022/11/09 02:09:20;;;;;;;6.63;2.03;;;;;;;11.00;100.00;100499.16;4953078;28;20019;-76
2022/11/09 02:11:45;;;;;;;6.90;2.13;;;;;;;10.93;100.00;100514.16;4952576;28;20063;-76
2022/11/09 02:14:11;;;;;;;9.48;2.63;;;;;;;10.91;100.00;100522.91;4952505;28;20031;-76
2022/11/09 02:16:39;;;;;;;5.72;1.90;;;;;;;10.86;100.00;100515.22;4952517;28;20039;-76
2022/11/09 02:19:07;;;;;;;8.68;2.15;;;;;;;10.83;100.00;100509.25;4952516;28;20050;-76
2022/11/09 02:21:32;;;;;;;8.60;2.33;;;;;;;10.89;100.00;100504.72;4953019;28;20019;-77
2022/11/09 02:23:59;;;;;;;8.10;2.30;;;;;;;10.97;100.00;100515.75;4952201;28;20853;-76
2022/11/09 02:26:37;;;;;;;5.50;1.88;;;;;;;11.01;100.00;100530.41;4952884;28;20035;-76
2022/11/09 02:29:06;;;;;;;5.03;1.83;;;;;;;10.99;100.00;100500.06;4951830;28;20035;-76
2022/11/09 02:31:35;;;;;;;8.70;2.15;;;;;;;11.16;100.00;100536.06;4948590;28;20027;-76
2022/11/09 02:34:17;;;;;;;7.15;2.13;;;;;;;11.16;100.00;100533.47;4950158;28;20031;-76
2022/11/09 02:36:43;;;;;;;9.70;2.28;;;;;;;11.19;100.00;100547.25;4953086;28;20391;-76
2022/11/09 02:39:10;;;;;;;9.07;2.65;;;;;;;11.22;100.00;100531.53;4952060;28;20023;-76
2022/11/09 02:41:44;;;;;;;5.63;2.10;;;;;;;11.25;100.00;100522.75;4952375;28;20031;-76
2022/11/09 02:44:10;;;;;;;4.53;1.88;;;;;;;11.28;100.00;100504.38;4952928;28;20045;-76
2022/11/09 02:46:36;;;;;;;11.00;2.05;;;;;;;11.33;100.00;100509.44;4954368;28;20043;-76
2022/11/09 02:49:03;;;;;;;8.98;2.55;;;;;;;11.39;100.00;100512.72;4955890;28;20031;-76
2022/11/09 02:51:31;;;;;;;9.68;2.45;;;;;;;11.41;100.00;100523.09;4956963;28;20023;-76
2022/11/09 02:53:57;;;;;;;8.35;2.08;;;;;;;11.48;100.00;100509.81;4955637;28;20074;-77
2022/11/09 02:56:22;;;;;;;7.05;1.67;;;;;;;11.48;100.00;100478.50;4956378;28;20440;-76
2022/11/09 02:58:48;;;;;;;9.60;2.33;;;;;;;11.60;100.00;100469.38;4955902;28;20039;-77
2022/11/09 03:01:13;;;;;;;7.70;1.90;;;;;;;11.59;100.00;100479.88;4956303;28;20106;-76
2022/11/09 03:03:38;;;;;;;9.95;2.00;;;;;;;11.48;100.00;100482.88;4956424;28;20037;-76
2022/11/09 03:06:04;;;;;;;9.52;2.10;;;;;;;11.41;100.00;100494.38;4955077;28;20538;-76
2022/11/09 03:08:29;;;;;;;7.07;1.95;;;;;;;11.33;100.00;100502.47;4956194;28;20479;-76
2022/11/09 03:10:55;;;;;;;8.45;2.30;;;;;;;11.23;100.00;100517.56;4955992;28;20055;-76
2022/11/09 03:13:20;;;;;;;7.68;2.08;;;;;;;11.16;100.00;100531.69;4955318;28;20399;-77
2022/11/09 03:15:45;;;;;;;7.78;2.00;;;;;;;11.09;100.00;100532.81;4955597;28;20066;-77
2022/11/09 03:18:10;;;;;;;6.70;2.13;;;;;;;11.02;100.00;100545.16;4956256;28;20027;-77
2022/11/09 03:20:36;;;;;;;8.35;2.13;;;;;;;10.96;100.00;100549.72;4971767;23;20102;-77
2022/11/09 03:23:01;;;;;;;8.23;2.30;;;;;;;10.90;100.00;100542.06;4966711;28;20097;-76
2022/11/09 03:25:27;;;;;;;7.60;2.17;;;;;;;10.91;100.00;100549.84;4969709;28;20027;-77
2022/11/09 03:27:57;;;;;;;10.77;1.98;;;;;;;10.89;100.00;100556.00;4966511;28;20018;-76
2022/11/09 03:30:22;;;;;;;10.35;2.63;;;;;;;10.90;100.00;100552.50;4970813;28;20050;-76
2022/11/09 03:32:48;;;;;;;5.55;1.90;;;;;;;10.91;100.00;100555.06;4955479;28;20463;-76
2022/11/09 03:35:13;;;;;;;6.80;1.92;;;;;;;10.86;100.00;100553.50;4954239;28;20051;-76
2022/11/09 03:37:38;;;;;;;7.05;2.15;;;;;;;10.92;100.00;100556.78;4954716;28;20027;-77
2022/11/09 03:40:04;;;;;;;10.45;2.33;;;;;;;10.91;100.00;100557.66;4939531;28;20071;-77
2022/11/09 03:42:29;;;;;;;11.98;2.30;;;;;;;10.83;100.00;100545.75;4953138;28;20035;-76
2022/11/09 03:44:55;;;;;;;8.48;2.15;;;;;;;10.94;100.00;100554.97;4953248;28;20051;-77
2022/11/09 03:47:20;;;;;;;9.30;2.35;;;;;;;10.98;100.00;100564.41;4954185;28;20023;-77
2022/11/09 03:49:45;;;;;;;7.30;2.38;;;;;;;10.99;100.00;100566.13;4959324;28;20037;-77
2022/11/09 03:52:10;;;;;;;7.68;2.10;;;;;;;11.08;100.00;100577.19;4954602;28;20054;-77
2022/11/09 03:54:36;;;;;;;8.70;2.05;;;;;;;11.09;100.00;100574.53;4957696;28;20027;-76
2022/11/09 03:57:01;;;;;;;11.07;2.15;;;;;;;11.10;100.00;100578.00;4961077;28;20030;-77
2022/11/09 03:59:26;;;;;;;8.68;2.05;;;;;;;11.09;100.00;100594.56;4946076;28;20038;-77
2022/11/09 04:01:51;;;;;;;12.68;2.25;;;;;;;11.01;100.00;100587.78;4951951;28;20050;-76
2022/11/09 04:04:17;;;;;;;10.43;2.38;;;;;;;11.00;100.00;100586.09;4952511;28;20109;-77
2022/11/09 04:06:42;;;;;;;9.57;2.53;;;;;;;10.89;100.00;100590.78;4958645;28;20289;-77
2022/11/09 04:09:09;;;;;;;8.75;1.88;;;;;;;10.80;100.00;100598.84;4952852;28;20068;-76
2022/11/09 04:11:34;;;;;;;13.10;2.45;;;;;;;10.71;100.00;100604.31;4963887;28;20070;-76
2022/11/09 04:14:00;;;;;;;12.05;2.33;;;;;;;10.64;100.00;100593.22;4959887;28;20426;-76
2022/11/09 04:16:25;;;;;;;6.35;2.28;;;;;;;10.62;100.00;100604.56;4969650;28;20031;-77
2022/11/09 04:18:50;;;;;;;9.93;2.28;;;;;;;10.61;100.00;100613.28;4964646;28;20065;-76
2022/11/09 04:21:16;;;;;;;9.48;2.17;;;;;;;10.54;100.00;100597.81;4948356;28;20055;-76
2022/11/09 04:23:43;;;;;;;8.30;2.20;;;;;;;10.45;100.00;100592.00;4948062;23;20103;-76
2022/11/09 04:26:24;;;;;;;7.63;2.30;;;;;;;10.20;100.00;100556.16;4942312;29;20479;-77
2022/11/09 04:28:56;;;;;;;9.30;2.30;;;;;;;10.32;100.00;100594.06;4942159;28;20079;-76
2022/11/09 04:31:21;;;;;;;8.23;2.10;;;;;;;10.48;100.00;100621.44;4940597;28;20027;-77
2022/11/09 04:34:02;;;;;;;9.20;2.20;;;;;;;10.12;100.00;100562.44;4948091;29;20032;-76
2022/11/09 04:36:39;;;;;;;8.73;2.00;;;;;;;10.19;100.00;100558.78;4941596;28;20031;-77
2022/11/09 04:39:05;;;;;;;9.55;2.00;;;;;;;10.60;100.00;100611.59;4936451;28;20035;-77
2022/11/09 04:41:35;;;;;;;14.45;2.80;;;;;;;10.45;100.00;100592.84;4933789;29;20171;-76
2022/11/09 04:44:06;;;;;;;12.02;2.08;;;;;;;10.28;100.00;100564.63;4934667;28;20383;-77
2022/11/09 04:46:49;;;;;;;7.25;2.25;;;;;;;10.39;100.00;100573.91;4935265;29;20031;-77
2022/11/09 04:52:06;;;;;;;9.25;2.20;;;;;;;10.59;100.00;100609.88;4960170;23;20055;-77
2022/11/09 04:54:40;;;;;;;10.75;2.70;;;;;;;10.47;100.00;100590.22;4941907;29;20038;-76
2022/11/09 04:57:14;;;;;;;10.45;2.05;;;;;;;10.64;100.00;100624.50;4953953;28;20478;-77
2022/11/09 04:59:39;;;;;;;10.30;2.45;;;;;;;10.40;100.00;100591.25;4953418;28;20020;-77
2022/11/09 05:02:05;;;;;;;5.65;1.85;;;;;;;10.45;100.00;100605.03;4953294;28;20024;-77
2022/11/09 05:04:30;;;;;;;9.50;2.40;;;;;;;10.58;100.00;100632.47;4954110;28;20027;-77
2022/11/09 05:06:55;;;;;;;12.18;2.28;;;;;;;10.50;100.00;100632.69;4952935;28;20090;-76
2022/11/09 05:09:20;;;;;;;10.35;2.25;;;;;;;10.11;100.00;100576.38;4953677;28;20094;-76
2022/11/09 05:11:54;;;;;;;11.25;2.08;;;;;;;10.12;100.00;100584.13;4953905;28;20114;-76
2022/11/09 05:14:19;;;;;;;10.82;2.28;;;;;;;10.37;100.00;100635.66;4953146;28;20034;-76
2022/11/09 05:16:45;;;;;;;8.25;2.63;;;;;;;10.31;100.00;100632.31;4953668;28;20031;-76
2022/11/09 05:19:10;;;;;;;12.77;2.40;;;;;;;10.20;100.00;100615.19;4954630;28;20364;-76
2022/11/09 05:21:35;;;;;;;8.60;2.17;;;;;;;10.19;100.00;100626.50;4954044;28;20026;-76
2022/11/09 05:24:01;;;;;;;6.80;2.75;;;;;;;10.14;100.00;100623.19;4955409;28;20019;-77
2022/11/09 05:26:35;;;;;;;9.07;2.17;;;;;;;10.09;100.00;100618.94;4954035;28;20383;-76
2022/11/09 05:29:05;;;;;;;10.93;2.35;;;;;;;10.11;100.00;100626.72;4941983;29;20027;-76
2022/11/09 05:31:31;;;;;;;12.95;2.78;;;;;;;10.07;100.00;100619.84;4954082;28;20101;-76
2022/11/09 05:33:58;;;;;;;10.02;2.50;;;;;;;10.09;100.00;100625.88;4953990;28;20435;-76
2022/11/09 05:36:24;;;;;;;11.73;2.55;;;;;;;10.05;100.00;100622.50;4953923;28;20050;-76
2022/11/09 05:38:49;;;;;;;16.17;2.70;;;;;;;9.97;100.00;100618.38;4953773;28;20031;-76
2022/11/09 05:41:15;;;;;;;14.50;3.08;;;;;;;9.98;100.00;100622.72;4953365;28;20086;-77
2022/11/09 05:43:40;;;;;;;7.00;2.40;;;;;;;9.94;100.00;100619.31;4953132;28;20019;-76
2022/11/09 05:46:09;;;;;;;9.10;2.33;;;;;;;9.95;100.00;100623.63;4952219;28;20035;-76
2022/11/09 05:48:35;;;;;;;11.63;2.30;;;;;;;10.01;100.00;100630.44;4950965;28;20103;-76
2022/11/09 05:51:02;;;;;;;11.13;2.25;;;;;;;10.03;100.00;100637.31;4952307;28;20130;-76
2022/11/09 05:53:28;;;;;;;8.40;2.30;;;;;;;9.99;100.00;100625.25;4951769;28;20087;-76
2022/11/09 05:55:53;;;;;;;12.32;2.63;;;;;;;10.01;100.00;100622.63;4951854;28;20019;-77
2022/11/09 05:58:19;;;;;;;10.35;2.58;;;;;;;9.98;100.00;100627.91;4953300;28;20130;-76
2022/11/09 06:00:44;;;;;;;11.05;3.17;;;;;;;9.99;100.00;100630.47;4952909;28;20015;-76
2022/11/09 06:03:10;;;;;;;13.35;3.30;;;;;;;9.95;100.00;100618.44;4952293;28;20448;-76
2022/11/09 06:05:37;;;;;;;11.75;2.63;;;;;;;9.98;100.00;100633.97;4953229;28;20050;-76
2022/11/09 06:08:13;;;;;;;14.07;3.00;;;;;;;9.99;100.00;100632.22;4952296;28;20467;-76
2022/11/09 06:10:39;;;;;;;8.23;2.22;;;;;;;9.98;100.00;100626.16;4951685;28;20501;-77
2022/11/09 06:13:05;;;;;;;10.75;2.65;;;;;;;9.99;100.00;100635.69;4952683;28;20110;-76
2022/11/09 06:15:30;;;;;;;10.63;3.47;;;;;;;9.95;100.00;100639.25;4952529;28;20126;-76
2022/11/09 06:17:56;;;;;;;11.05;4.13;;;;;;;9.88;100.00;100624.69;4952312;28;20019;-76
2022/11/09 06:20:23;;;;;;;7.97;2.38;;;;;;;9.88;100.00;100636.84;4951962;28;20031;-76
2022/11/09 06:23:00;;;;;;;14.68;3.30;;;;;;;9.82;100.00;100641.28;4952126;28;20082;-76
2022/11/09 06:25:26;;;;;;;10.07;2.35;;;;;;;9.78;100.00;100641.41;4952637;28;20031;-76
2022/11/09 06:27:55;;;;;;;8.45;2.20;;;;;;;9.77;100.00;100639.69;4952493;28;20027;-76
2022/11/09 06:30:20;;;;;;;11.50;2.67;;;;;;;9.77;100.00;100634.47;4952228;28;20019;-76
2022/11/09 06:32:46;;;;;;;13.65;2.47;;;;;;;9.90;100.00;100650.66;4952307;28;20086;-76
2022/11/09 06:35:11;;;;;;;9.40;2.00;;;;;;;9.91;100.00;100660.19;4952676;28;20065;-76
2022/11/09 06:37:37;;;;;;;10.63;1.95;;;;;;;9.94;100.00;100658.38;4952135;28;20071;-76
2022/11/09 06:40:03;;;;;;;8.77;2.67;;;;;;;9.89;100.00;100638.56;4951875;28;20352;-76
2022/11/09 06:42:28;;;;;;;10.80;2.60;;;;;;;9.93;100.00;100650.59;4952431;28;20394;-76
2022/11/09 06:44:53;;;;;;;11.20;2.83;;;;;;;9.86;100.00;100644.69;4951585;28;20031;-76
2022/11/09 06:47:18;;;;;;;9.20;2.40;;;;;;;9.88;100.00;100648.13;4951978;28;20027;-76
2022/11/09 06:49:44;;;;;;;13.18;2.88;;;;;;;9.91;100.00;100662.78;4956463;28;20030;-77
2022/11/09 06:52:09;;;;;;;7.22;2.40;;;;;;;9.94;100.00;100650.56;5009007;28;20030;-76
2022/11/09 06:54:34;;;;;;;10.05;2.88;;;;;;;9.97;100.00;100660.91;5008791;28;20034;-76
2022/11/09 06:57:00;;;;;;;10.07;2.75;;;;;;;9.99;100.00;100650.44;5009162;28;20029;-76
2022/11/09 06:59:25;;;;;;;11.15;2.83;;;;;;;9.98;100.00;100667.84;5008879;28;20064;-76
2022/11/09 07:01:50;;;;;;;10.55;2.60;;;;;;;9.95;100.00;100661.84;5008870;28;20038;-76
2022/11/09 07:04:16;;;;;;;13.35;2.42;;;;;;;9.92;100.00;100669.72;5014872;28;20054;-76
2022/11/09 07:06:41;;;;;;;11.98;2.67;;;;;;;9.85;100.00;100669.88;5013939;28;20492;-76
2022/11/09 07:09:09;;;;;;;12.50;2.45;;;;;;;9.90;100.00;100674.94;5010278;28;20041;-76
2022/11/09 07:11:34;;;;;;;12.50;3.40;;;;;;;9.92;100.00;100670.56;5023566;28;20017;-76
2022/11/09 07:14:01;;;;;;;12.25;2.80;;;;;;;9.82;100.00;100669.09;5058340;23;20056;-76
2022/11/09 07:16:32;;;;;;;14.30;2.88;;;;;;;9.62;100.00;100633.09;5069898;28;20115;-76
2022/11/09 07:19:07;;;;;;;11.35;3.03;;;;;;;9.58;100.00;100621.03;5060740;28;20664;-76
2022/11/09 07:21:32;;;;;;;14.57;2.88;;;;;;;9.99;100.00;100679.94;5051494;28;20036;-76
2022/11/09 07:23:57;;;;;;;7.03;2.05;;;;;;;10.06;100.00;100693.69;5058516;28;20383;-76
2022/11/09 07:26:23;;;;;;;10.38;2.50;;;;;;;9.98;100.00;100678.25;5061309;28;20068;-77
2022/11/09 07:28:48;;;;;;;11.15;2.30;;;;;;;10.05;100.00;100697.19;5065525;28;20032;-75
2022/11/09 07:31:13;;;;;;;10.93;3.22;;;;;;;10.04;100.00;100695.50;5058409;28;20148;-76
2022/11/09 07:33:39;;;;;;;13.95;3.08;;;;;;;10.04;100.00;100696.34;5050224;28;20021;-76
2022/11/09 07:36:04;;;;;;;9.00;2.35;;;;;;;10.06;100.00;100694.53;5056199;28;20039;-76
2022/11/09 07:38:30;;;;;;;8.85;2.63;;;;;;;10.14;100.00;100704.78;5057535;28;20091;-75
2022/11/09 07:41:00;;;;;;;12.55;2.42;;;;;;;10.20;100.00;100707.25;5057872;28;20037;-76
2022/11/09 07:43:25;;;;;;;12.55;2.22;;;;;;;10.26;100.00;100690.63;5052950;28;20044;-76
2022/11/09 07:45:51;;;;;;;11.23;2.88;;;;;;;10.34;100.00;100690.47;5068025;28;20106;-76
2022/11/09 07:48:16;;;;;;;10.10;2.40;;;;;;;10.37;100.00;100699.06;5072740;28;20029;-76
2022/11/09 07:50:42;;;;;;;11.20;2.28;;;;;;;10.45;100.00;100701.47;5068611;28;20408;-76
2022/11/09 07:53:11;;;;;;;11.57;2.60;;;;;;;10.54;100.00;100690.81;5057709;28;20059;-76
2022/11/09 07:55:36;;;;;;;12.40;2.25;;;;;;;10.60;100.00;100700.22;5054251;28;20025;-76
2022/11/09 07:58:05;;;;;;;7.63;2.22;;;;;;;10.66;100.00;100705.25;5068151;28;20158;-76
2022/11/09 08:00:32;;;;;;;8.88;3.17;;;;;;;10.74;100.00;100709.38;5067315;28;20107;-76
2022/11/09 08:02:58;;;;;;;14.38;2.95;;;;;;;10.80;100.00;100710.13;5057463;28;20030;-76
2022/11/09 08:05:23;;;;;;;10.65;2.53;;;;;;;10.87;100.00;100717.75;5065807;28;20452;-76
2022/11/09 08:08:02;;;;;;;13.63;2.67;;;;;;;10.87;100.00;100711.69;5069154;28;20491;-76
2022/11/09 08:10:29;;;;;;;8.73;3.13;;;;;;;10.88;100.00;100714.22;5072899;28;20415;-76
2022/11/09 08:12:56;;;;;;;8.75;2.22;;;;;;;10.92;100.00;100715.00;5062294;28;20049;-76
2022/11/09 08:15:22;;;;;;;12.57;2.45;;;;;;;10.92;100.00;100723.72;5043693;28;20364;-76
2022/11/09 08:17:48;;;;;;;10.38;2.72;;;;;;;10.86;100.00;100718.66;5049160;28;20468;-76
2022/11/09 08:20:14;;;;;;;12.90;2.50;;;;;;;10.83;100.00;100729.16;5053807;28;20042;-76
2022/11/09 08:22:41;;;;;;;11.63;2.60;;;;;;;10.81;100.00;100730.09;5049904;28;20032;-76
2022/11/09 08:25:07;;;;;;;8.07;2.20;;;;;;;10.70;100.00;100717.34;5053538;28;20475;-76
2022/11/09 08:27:38;;;;;;;11.95;2.58;;;;;;;10.81;100.00;100728.34;5072842;28;20025;-76
2022/11/09 08:30:10;;;;;;;11.32;2.65;;;;;;;10.86;100.00;100730.84;5071524;28;20463;-76
2022/11/09 08:32:35;;;;;;;9.20;2.00;;;;;;;10.92;100.00;100731.53;5063268;28;20044;-76
2022/11/09 08:35:01;;;;;;;11.18;2.20;;;;;;;10.92;100.00;100741.97;5057476;28;20032;-76
2022/11/09 08:37:26;;;;;;;10.77;2.50;;;;;;;10.92;100.00;100743.69;5072066;28;20114;-76
2022/11/09 08:39:52;;;;;;;8.45;2.10;;;;;;;10.89;100.00;100728.13;5072098;28;20490;-76
2022/11/09 08:42:17;;;;;;;10.15;2.38;;;;;;;11.00;100.00;100744.34;5071118;28;20036;-76
2022/11/09 08:44:42;;;;;;;12.68;3.15;;;;;;;11.04;100.00;100735.53;5071353;28;20554;-76
2022/11/09 08:47:08;;;;;;;10.77;2.80;;;;;;;11.20;100.00;100744.66;5057801;28;20056;-76
2022/11/09 08:49:33;;;;;;;7.15;2.38;;;;;;;11.28;100.00;100744.47;5064136;28;20098;-76
2022/11/09 08:51:58;;;;;;;12.18;2.25;;;;;;;11.35;100.00;100737.31;5052721;28;20040;-76
2022/11/09 08:54:24;;;;;;;9.10;2.10;;;;;;;11.32;100.00;100738.25;5071583;28;20032;-76
2022/11/09 08:56:49;;;;;;;11.43;1.88;;;;;;;11.30;100.00;100732.22;5071701;28;20041;-76
2022/11/09 08:59:14;;;;;;;6.05;2.05;;;;;;;11.34;100.00;100741.66;5070914;28;20020;-76
2022/11/09 09:01:40;;;;;;;9.77;2.25;;;;;;;11.37;100.00;100740.72;5071622;28;20023;-76
2022/11/09 09:04:05;;;;;;;7.78;2.40;;;;;;;11.36;100.00;100747.72;5071878;28;20028;-76
2022/11/09 09:06:30;;;;;;;10.30;2.95;;;;;;;11.37;100.00;100748.56;5055503;28;20036;-76
2022/11/09 09:08:55;;;;;;;8.20;1.77;;;;;;;11.34;100.00;100738.19;5071202;28;20375;-76
2022/11/09 09:11:21;;;;;;;11.25;2.33;;;;;;;11.43;100.00;100751.84;5070948;28;20061;-76
2022/11/09 09:13:46;;;;;;;12.68;2.38;;;;;;;11.48;100.00;100749.13;5070801;28;20043;-76
2022/11/09 09:16:13;;;;;;;9.55;2.53;;;;;;;11.45;100.00;100737.00;5071606;28;20066;-76
2022/11/09 09:18:38;;;;;;;13.20;2.33;;;;;;;11.64;100.00;100742.56;5065252;28;20017;-76
2022/11/09 09:21:05;;;;;;;10.50;2.25;;;;;;;11.80;100.00;100750.78;5060763;28;20532;-76
2022/11/09 09:23:31;;;;;;;8.80;2.38;;;;;;;11.89;100.00;100757.53;5071188;28;20060;-76
2022/11/09 09:25:56;;;;;;;9.68;2.42;;;;;;;11.96;100.00;100751.19;5070177;28;20056;-76
2022/11/09 09:28:21;;;;;;;10.65;2.70;;;;;;;12.08;100.00;100758.66;5070853;28;20424;-76
2022/11/09 09:30:47;;;;;;;9.07;2.53;;;;;;;12.13;100.00;100766.34;5071228;28;20012;-76
2022/11/09 09:33:12;;;;;;;8.25;2.05;;;;;;;12.18;100.00;100762.69;5070791;28;20053;-76
2022/11/09 09:35:37;;;;;;;9.68;2.13;;;;;;;12.24;100.00;100768.66;5058451;28;20020;-76
2022/11/09 09:38:03;;;;;;;14.07;2.72;;;;;;;12.19;100.00;100767.00;5070721;28;20464;-76
2022/11/09 09:40:50;;;;;;;9.45;2.28;;;;;;;12.22;100.00;100770.44;5056572;28;20016;-76
2022/11/09 09:43:26;;;;;;;12.25;2.70;;;;;;;12.18;100.00;100754.00;5053797;28;20443;-76
2022/11/09 09:45:53;;;;;;;7.95;2.25;;;;;;;12.23;100.00;100764.31;5055820;28;20471;-76
2022/11/09 09:48:40;;;;;;;9.52;2.08;;;;;;;12.21;99.61;100772.22;5069345;28;20115;-75
2022/11/09 09:51:26;;;;;;;7.60;2.35;;;;;;;12.17;100.00;100775.84;5060202;28;20476;-76
2022/11/09 09:53:58;;;;;;;6.55;2.08;;;;;;;12.23;99.85;100780.88;5061094;28;20398;-76
2022/11/09 09:56:27;;;;;;;11.55;2.30;;;;;;;12.21;99.23;100793.13;5060074;28;20099;-76
2022/11/09 09:59:00;;;;;;;11.25;2.08;;;;;;;12.19;98.66;100784.47;5051771;28;20036;-76
2022/11/09 10:01:42;;;;;;;14.38;2.63;;;;;;;12.18;99.21;100788.00;5055437;28;20436;-76
2022/11/09 10:04:16;;;;;;;12.38;2.67;;;;;;;12.15;100.00;100777.63;5056486;28;20041;-76
2022/11/09 10:06:58;;;;;;;9.27;2.40;;;;;;;12.27;97.31;100787.72;5042867;28;20045;-76
2022/11/09 10:09:32;;;;;;;5.75;2.10;;;;;;;12.44;96.42;100796.78;5061406;28;20514;-76
2022/11/09 10:12:15;;;;;;;6.00;2.08;;;;;;;12.59;97.01;100796.28;5043272;28;20012;-76
2022/11/09 10:14:55;;;;;;;8.82;2.20;;;;;;;12.74;95.60;100802.78;5047990;28;20392;-76
2022/11/09 10:17:45;;;;;;;12.07;2.70;;;;;;;12.73;95.54;100788.84;5047616;28;20056;-76
2022/11/09 10:20:50;;;;;;;7.25;1.83;;;;;;;12.83;93.95;100802.47;5064533;28;20127;-76
2022/11/09 10:23:38;;;;;;;11.45;2.42;;;;;;;12.80;93.07;100803.41;5064875;28;20060;-76
2022/11/09 10:26:45;;;;;;;9.07;2.78;;;;;;;12.77;93.07;100797.44;5055098;28;20037;-76
2022/11/09 10:29:34;;;;;;;13.18;2.67;;;;;;;12.98;92.76;100793.22;5043419;28;20071;-76
2022/11/09 10:32:21;;;;;;;9.52;1.90;;;;;;;13.10;89.66;100801.53;5069066;28;20047;-76
2022/11/09 10:34:54;;;;;;;10.52;2.42;;;;;;;13.03;88.42;100789.56;5062785;28;20472;-75
2022/11/09 10:37:26;;;;;;;11.60;2.28;;;;;;;13.14;87.20;100807.50;5052214;28;20443;-77
2022/11/09 10:40:22;;;;;;;10.38;2.00;;;;;;;13.34;88.45;100809.44;5052530;28;20043;-77
2022/11/09 10:42:50;;;;;;;10.27;2.13;;;;;;;13.58;88.78;100799.88;5035386;28;20123;-77
2022/11/09 10:45:36;;;;;;;11.40;2.58;;;;;;;13.75;85.91;100810.59;5069757;28;20899;-76
2022/11/09 10:48:04;;;;;;;10.63;2.00;;;;;;;13.79;85.97;100806.94;5048546;28;20480;-76
2022/11/09 10:50:47;;;;;;;15.48;1.90;;;;;;;13.85;85.58;100818.09;5057048;28;20036;-76
2022/11/09 10:53:30;;;;;;;9.23;1.90;;;;;;;13.76;84.84;100811.44;5063255;28;20549;-76
2022/11/09 10:56:26;;;;;;;9.45;2.30;;;;;;;13.77;84.94;100828.88;5053629;28;20460;-76
2022/11/09 10:58:52;;;;;;;9.65;2.75;;;;;;;13.65;84.14;100814.47;5034584;28;20045;-76
2022/11/09 11:01:23;;;;;;;9.05;2.10;;;;;;;13.59;85.32;100825.16;5053911;28;20384;-77
2022/11/09 11:03:52;;;;;;;4.45;1.60;;;;;;;13.62;85.55;100830.28;5062941;28;20028;-76
2022/11/09 11:06:26;;;;;;;12.40;1.95;;;;;;;13.67;85.46;100828.38;5067844;28;20063;-77
2022/11/09 11:09:14;;;;;;;9.13;2.17;;;;;;;13.69;85.88;100826.53;5072382;28;20021;-76
2022/11/09 11:11:39;;;;;;;7.35;1.70;;;;;;;13.64;83.29;100820.63;5065971;28;20025;-77
2022/11/09 11:14:15;;;;;;;8.25;1.90;;;;;;;13.58;84.02;100834.78;5052265;28;20128;-76
2022/11/09 11:16:42;;;;;;;9.02;1.73;;;;;;;13.55;85.42;100839.28;5071030;28;20020;-76
2022/11/09 11:19:35;;;;;;;9.05;2.10;;;;;;;13.50;84.03;100836.81;5072813;28;20036;-76
2022/11/09 11:22:07;;;;;;;11.85;2.42;;;;;;;13.27;83.51;100839.38;5062080;28;20024;-75
2022/11/09 11:24:41;;;;;;;9.40;2.38;;;;;;;13.12;83.59;100819.81;5062024;28;20024;-76
2022/11/09 11:27:13;;;;;;;;;;;;;;;13.25;86.53;100839.44;5057286;28;20043;-76